East Barnard, Vermont
Current Conditions -  °F | °C
As of 8:53 AM on Saturday 20 Dec 2014 (Local Time) from KLEB Reporting Station
Clear Clear  
Wind Chill: 15°   Ceiling: Unl
Heat Index: 15°   Visibility: 10mi
Dew Point: 12°   Wind: 0mph
Humidity: 88%   Direction: NA
Pressure: 30.32"   Gusts: NA
Location:  43.7658°N, 72.5431°W
Report Text: KLEB 201353Z 00000KT 10SM CLR M09/M11 A3032 RMK AO2 SLP282 T10941111
Loading
Personal Weather Stations






























Interactive Weather Map New forecast layout! Learn more

10-Day Weather Forecast

Advertisements
Track Severe Weather on mobile